VEGT/GAU METAR and TAF weather

Enter ICAO airport designator
Station Type Date Time Source
VEGT METAR 2024/04/15 08:30 UTC NOAA

VEGT 150830Z 28006KT 3000 HZ FEW020 36/22 Q1007 NOSIG


Station Type Date Time Source
VEGT Decoded METAR 2024/04/15 08:30 UTC NOAA

Gauhati, India (VEGT) 26-06N 091-35E 54M
Apr 15, 2024 - 04:30 AM EDT / 2024.04.15 0830 UTC
Wind: from the W (280 degrees) at 7 MPH (6 KT):0
Visibility: 1 mile(s):0
Sky conditions: mostly clear
Weather: haze
Temperature: 96 F (36 C)
Heat index: 103.5 F (39.7 C):1
Dew Point: 71 F (22 C)
Relative Humidity: 44%
Pressure (altimeter): 29.74 in. Hg (1007 hPa)
ob: VEGT 150830Z 28006KT 3000 HZ FEW020 36/22 Q1007 NOSIG
cycle: 8

Station Type Date Time Source
VEGT TAF 2024/04/04 12:00 UTC NOAA